Aviation Digital Data Service (ADDS)

Output produced by METARs form (0502 UTC 19 February 2019)
found at http://www.aviationweather.gov/metar/data/
 
METAR text: YBAS 190430Z 06011KT 010V080 CAVOK 39/04 Q1011 RF00.0/000.0
Conditions at: YBAS (ALICE SPRINGS AR, AU) observed 0430 UTC 19 February 2019
Temperature: 39.0°C (102°F)
Dewpoint: 4.0°C (39°F) [RH = 12%]
Pressure (altimeter): 29.85 inches Hg (1011.0 mb)
Winds: from the ENE (60 degrees) at 13 MPH (11 knots; 5.7 m/s)
Visibility: 6 or more miles (10+ km)
Ceiling: ceiling and visibility are OK
Clouds: unknown
Weather: no significant weather observed at this time

METAR text: YBAS 190400Z 09009KT 060V140 CAVOK 37/03 Q1012 RF00.0/000.0
Conditions at: YBAS (ALICE SPRINGS AR, AU) observed 0400 UTC 19 February 2019
Temperature: 37.0°C (99°F)
Dewpoint: 3.0°C (37°F) [RH = 12%]
Pressure (altimeter): 29.88 inches Hg (1012.0 mb)
Winds: from the E (90 degrees) at 10 MPH (9 knots; 4.6 m/s)
Visibility: 6 or more miles (10+ km)
Ceiling: ceiling and visibility are OK
Clouds: unknown
Weather: no significant weather observed at this time

METAR text: YBAS 190330Z AUTO 07012KT 9999 // NCD 38/04 Q1012 RF00.0/000.0
Conditions at: YBAS (ALICE SPRINGS AR, AU) observed 0330 UTC 19 February 2019
Temperature: 38.0°C (100°F)
Dewpoint: 4.0°C (39°F) [RH = 12%]
Pressure (altimeter): 29.88 inches Hg (1012.0 mb)
Winds: from the ENE (70 degrees) at 14 MPH (12 knots; 6.2 m/s)
Visibility: 6 or more miles (10+ km)
Ceiling: at least 12,000 feet AGL
Clouds: sky clear below 12,000 feet AGL
Weather: no significant weather observed at this time

METAR text: YBAS 190300Z 09011KT 050V110 CAVOK 37/04 Q1013 RF00.0/000.0
Conditions at: YBAS (ALICE SPRINGS AR, AU) observed 0300 UTC 19 February 2019
Temperature: 37.0°C (99°F)
Dewpoint: 4.0°C (39°F) [RH = 13%]
Pressure (altimeter): 29.91 inches Hg (1013.0 mb)
Winds: from the E (90 degrees) at 13 MPH (11 knots; 5.7 m/s)
Visibility: 6 or more miles (10+ km)
Ceiling: ceiling and visibility are OK
Clouds: unknown
Weather: no significant weather observed at this time

METAR text: YBAS 190230Z 09010KT CAVOK 36/04 Q1013
Conditions at: YBAS (ALICE SPRINGS AR, AU) observed 0230 UTC 19 February 2019
Temperature: 36.0°C (97°F)
Dewpoint: 4.0°C (39°F) [RH = 14%]
Pressure (altimeter): 29.91 inches Hg (1013.0 mb)
Winds: from the E (90 degrees) at 12 MPH (10 knots; 5.1 m/s)
Visibility: 6 or more miles (10+ km)
Ceiling: ceiling and visibility are OK
Clouds: unknown
Weather: no significant weather observed at this time

METAR text: YBAS 190200Z 11012KT CAVOK 36/05 Q1013
Conditions at: YBAS (ALICE SPRINGS AR, AU) observed 0200 UTC 19 February 2019
Temperature: 36.0°C (97°F)
Dewpoint: 5.0°C (41°F) [RH = 15%]
Pressure (altimeter): 29.91 inches Hg (1013.0 mb)
Winds: from the ESE (110 degrees) at 14 MPH (12 knots; 6.2 m/s)
Visibility: 6 or more miles (10+ km)
Ceiling: ceiling and visibility are OK
Clouds: unknown
Weather: no significant weather observed at this time

METAR text: YBAS 190130Z 11011KT CAVOK 34/07 Q1014
Conditions at: YBAS (ALICE SPRINGS AR, AU) observed 0130 UTC 19 February 2019
Temperature: 34.0°C (93°F)
Dewpoint: 7.0°C (45°F) [RH = 19%]
Pressure (altimeter): 29.94 inches Hg (1014.0 mb)
Winds: from the ESE (110 degrees) at 13 MPH (11 knots; 5.7 m/s)
Visibility: 6 or more miles (10+ km)
Ceiling: ceiling and visibility are OK
Clouds: unknown
Weather: no significant weather observed at this time

METAR text: YBAS 190100Z 09011KT 050V110 CAVOK 33/05 Q1014 RF00.0/000.0
Conditions at: YBAS (ALICE SPRINGS AR, AU) observed 0100 UTC 19 February 2019
Temperature: 33.0°C (91°F)
Dewpoint: 5.0°C (41°F) [RH = 17%]
Pressure (altimeter): 29.94 inches Hg (1014.0 mb)
Winds: from the E (90 degrees) at 13 MPH (11 knots; 5.7 m/s)
Visibility: 6 or more miles (10+ km)
Ceiling: ceiling and visibility are OK
Clouds: unknown
Weather: no significant weather observed at this time

METAR text: YBAS 190030Z 10009KT 070V130 CAVOK 33/06 Q1014 RF00.0/000.0
Conditions at: YBAS (ALICE SPRINGS AR, AU) observed 0030 UTC 19 February 2019
Temperature: 33.0°C (91°F)
Dewpoint: 6.0°C (43°F) [RH = 19%]
Pressure (altimeter): 29.94 inches Hg (1014.0 mb)
Winds: from the E (100 degrees) at 10 MPH (9 knots; 4.6 m/s)
Visibility: 6 or more miles (10+ km)
Ceiling: ceiling and visibility are OK
Clouds: unknown
Weather: no significant weather observed at this time

METAR text: YBAS 190000Z 12008KT 100V160 CAVOK 31/05 Q1014 RF00.0/000.0
Conditions at: YBAS (ALICE SPRINGS AR, AU) observed 0000 UTC 19 February 2019
Temperature: 31.0°C (88°F)
Dewpoint: 5.0°C (41°F) [RH = 19%]
Pressure (altimeter): 29.94 inches Hg (1014.0 mb)
Winds: from the ESE (120 degrees) at 9 MPH (8 knots; 4.1 m/s)
Visibility: 6 or more miles (10+ km)
Ceiling: ceiling and visibility are OK
Clouds: unknown
Weather: no significant weather observed at this time

METAR text: YBAS 182330Z 13008KT CAVOK 31/06 Q1014
Conditions at: YBAS (ALICE SPRINGS AR, AU) observed 2330 UTC 18 February 2019
Temperature: 31.0°C (88°F)
Dewpoint: 6.0°C (43°F) [RH = 21%]
Pressure (altimeter): 29.94 inches Hg (1014.0 mb)
Winds: from the SE (130 degrees) at 9 MPH (8 knots; 4.1 m/s)
Visibility: 6 or more miles (10+ km)
Ceiling: ceiling and visibility are OK
Clouds: unknown
Weather: no significant weather observed at this time

METAR text: YBAS 182300Z 12006KT 090V150 CAVOK 30/04 Q1014 RF00.0/000.0
Conditions at: YBAS (ALICE SPRINGS AR, AU) observed 2300 UTC 18 February 2019
Temperature: 30.0°C (86°F)
Dewpoint: 4.0°C (39°F) [RH = 19%]
Pressure (altimeter): 29.94 inches Hg (1014.0 mb)
Winds: from the ESE (120 degrees) at 7 MPH (6 knots; 3.1 m/s)
Visibility: 6 or more miles (10+ km)
Ceiling: ceiling and visibility are OK
Clouds: unknown
Weather: no significant weather observed at this time

METAR text: YBAS 182230Z AUTO 15005KT 110V170 9999 // NCD 28/03 Q1014 RF00.0/000.0
Conditions at: YBAS (ALICE SPRINGS AR, AU) observed 2230 UTC 18 February 2019
Temperature: 28.0°C (82°F)
Dewpoint: 3.0°C (37°F) [RH = 20%]
Pressure (altimeter): 29.94 inches Hg (1014.0 mb)
Winds: from the SSE (150 degrees) at 6 MPH (5 knots; 2.6 m/s)
Visibility: 6 or more miles (10+ km)
Ceiling: at least 12,000 feet AGL
Clouds: sky clear below 12,000 feet AGL
Weather: no significant weather observed at this time

METAR text: YBAS 182200Z AUTO 19005KT 9999 // NCD 26/00 Q1014 RF00.0/000.0
Conditions at: YBAS (ALICE SPRINGS AR, AU) observed 2200 UTC 18 February 2019
Temperature: 26.0°C (79°F)
Dewpoint: 0.0°C (32°F) [RH = 18%]
Pressure (altimeter): 29.94 inches Hg (1014.0 mb)
Winds: from the S (190 degrees) at 6 MPH (5 knots; 2.6 m/s)
Visibility: 6 or more miles (10+ km)
Ceiling: at least 12,000 feet AGL
Clouds: sky clear below 12,000 feet AGL
Weather: no significant weather observed at this time

METAR text: YBAS 182130Z AUTO 26005KT 9999 // NCD 23/M01 Q1013 RF00.0/000.0
Conditions at: YBAS (ALICE SPRINGS AR, AU) observed 2130 UTC 18 February 2019
Temperature: 23.0°C (73°F)
Dewpoint: -1.0°C (30°F) [RH = 20%]
Pressure (altimeter): 29.91 inches Hg (1013.0 mb)
Winds: from the W (260 degrees) at 6 MPH (5 knots; 2.6 m/s)
Visibility: 6 or more miles (10+ km)
Ceiling: at least 12,000 feet AGL
Clouds: sky clear below 12,000 feet AGL
Weather: no significant weather observed at this time

METAR text: YBAS 182100Z AUTO 29006KT 9999 // NCD 23/00 Q1013 RF00.0/000.0
Conditions at: YBAS (ALICE SPRINGS AR, AU) observed 2100 UTC 18 February 2019
Temperature: 23.0°C (73°F)
Dewpoint: 0.0°C (32°F) [RH = 22%]
Pressure (altimeter): 29.91 inches Hg (1013.0 mb)
Winds: from the WNW (290 degrees) at 7 MPH (6 knots; 3.1 m/s)
Visibility: 6 or more miles (10+ km)
Ceiling: at least 12,000 feet AGL
Clouds: sky clear below 12,000 feet AGL
Weather: no significant weather observed at this time

METAR text: YBAS 182030Z AUTO 08007KT 9999 // NCD 25/M01 Q1012 RF00.0/000.0
Conditions at: YBAS (ALICE SPRINGS AR, AU) observed 2030 UTC 18 February 2019
Temperature: 25.0°C (77°F)
Dewpoint: -1.0°C (30°F) [RH = 18%]
Pressure (altimeter): 29.88 inches Hg (1012.0 mb)
Winds: from the E (80 degrees) at 8 MPH (7 knots; 3.6 m/s)
Visibility: 6 or more miles (10+ km)
Ceiling: at least 12,000 feet AGL
Clouds: sky clear below 12,000 feet AGL
Weather: no significant weather observed at this time

METAR text: YBAS 182000Z AUTO 12004KT 080V140 9999 // NCD 28/02 Q1012 RF00.0/000.0
Conditions at: YBAS (ALICE SPRINGS AR, AU) observed 2000 UTC 18 February 2019
Temperature: 28.0°C (82°F)
Dewpoint: 2.0°C (36°F) [RH = 19%]
Pressure (altimeter): 29.88 inches Hg (1012.0 mb)
Winds: from the ESE (120 degrees) at 5 MPH (4 knots; 2.1 m/s)
Visibility: 6 or more miles (10+ km)
Ceiling: at least 12,000 feet AGL
Clouds: sky clear below 12,000 feet AGL
Weather: no significant weather observed at this time

METAR text: YBAS 181930Z AUTO 10009KT 9999 // NCD 27/01 Q1011 RF00.0/000.0
Conditions at: YBAS (ALICE SPRINGS AR, AU) observed 1930 UTC 18 February 2019
Temperature: 27.0°C (81°F)
Dewpoint: 1.0°C (34°F) [RH = 18%]
Pressure (altimeter): 29.85 inches Hg (1011.0 mb)
Winds: from the E (100 degrees) at 10 MPH (9 knots; 4.6 m/s)
Visibility: 6 or more miles (10+ km)
Ceiling: at least 12,000 feet AGL
Clouds: sky clear below 12,000 feet AGL
Weather: no significant weather observed at this time

METAR text: YBAS 181900Z AUTO 08006KT 9999 // NCD 23/M04 Q1011 RF00.0/000.0
Conditions at: YBAS (ALICE SPRINGS AR, AU) observed 1900 UTC 18 February 2019
Temperature: 23.0°C (73°F)
Dewpoint: -4.0°C (25°F) [RH = 16%]
Pressure (altimeter): 29.85 inches Hg (1011.0 mb)
Winds: from the E (80 degrees) at 7 MPH (6 knots; 3.1 m/s)
Visibility: 6 or more miles (10+ km)
Ceiling: at least 12,000 feet AGL
Clouds: sky clear below 12,000 feet AGL
Weather: no significant weather observed at this time

METAR text: YBAS 181830Z AUTO 12001KT 9999 // NCD 23/M05 Q1011 RF00.0/000.0
Conditions at: YBAS (ALICE SPRINGS AR, AU) observed 1830 UTC 18 February 2019
Temperature: 23.0°C (73°F)
Dewpoint: -5.0°C (23°F) [RH = 15%]
Pressure (altimeter): 29.85 inches Hg (1011.0 mb)
Winds: from the ESE (120 degrees) at 1 MPH (1 knots; 0.5 m/s)
Visibility: 6 or more miles (10+ km)
Ceiling: at least 12,000 feet AGL
Clouds: sky clear below 12,000 feet AGL
Weather: no significant weather observed at this time

METAR text: YBAS 181800Z AUTO 18002KT 9999 // NCD 22/M06 Q1011 RF00.0/000.0
Conditions at: YBAS (ALICE SPRINGS AR, AU) observed 1800 UTC 18 February 2019
Temperature: 22.0°C (72°F)
Dewpoint: -6.0°C (21°F) [RH = 15%]
Pressure (altimeter): 29.85 inches Hg (1011.0 mb)
Winds: from the S (180 degrees) at 2 MPH (2 knots; 1.0 m/s)
Visibility: 6 or more miles (10+ km)
Ceiling: at least 12,000 feet AGL
Clouds: sky clear below 12,000 feet AGL
Weather: no significant weather observed at this time

METAR text: YBAS 181730Z AUTO 33005KT 9999 // NCD 24/M05 Q1011 RF00.0/000.0
Conditions at: YBAS (ALICE SPRINGS AR, AU) observed 1730 UTC 18 February 2019
Temperature: 24.0°C (75°F)
Dewpoint: -5.0°C (23°F) [RH = 14%]
Pressure (altimeter): 29.85 inches Hg (1011.0 mb)
Winds: from the NNW (330 degrees) at 6 MPH (5 knots; 2.6 m/s)
Visibility: 6 or more miles (10+ km)
Ceiling: at least 12,000 feet AGL
Clouds: sky clear below 12,000 feet AGL
Weather: no significant weather observed at this time

METAR text: YBAS 181700Z AUTO 15005KT 9999 // NCD 25/M06 Q1011 RF00.0/000.0
Conditions at: YBAS (ALICE SPRINGS AR, AU) observed 1700 UTC 18 February 2019
Temperature: 25.0°C (77°F)
Dewpoint: -6.0°C (21°F) [RH = 12%]
Pressure (altimeter): 29.85 inches Hg (1011.0 mb)
Winds: from the SSE (150 degrees) at 6 MPH (5 knots; 2.6 m/s)
Visibility: 6 or more miles (10+ km)
Ceiling: at least 12,000 feet AGL
Clouds: sky clear below 12,000 feet AGL
Weather: no significant weather observed at this time

METAR text: YBAS 181630Z AUTO 13009KT 090V170 9999 // NCD 26/M05 Q1011 RF00.0/000.0
Conditions at: YBAS (ALICE SPRINGS AR, AU) observed 1630 UTC 18 February 2019
Temperature: 26.0°C (79°F)
Dewpoint: -5.0°C (23°F) [RH = 13%]
Pressure (altimeter): 29.85 inches Hg (1011.0 mb)
Winds: from the SE (130 degrees) at 10 MPH (9 knots; 4.6 m/s)
Visibility: 6 or more miles (10+ km)
Ceiling: at least 12,000 feet AGL
Clouds: sky clear below 12,000 feet AGL
Weather: no significant weather observed at this time

METAR text: YBAS 181600Z AUTO 00000KT 9999 // NCD 24/M05 Q1011 RF00.0/000.0
Conditions at: YBAS (ALICE SPRINGS AR, AU) observed 1600 UTC 18 February 2019
Temperature: 24.0°C (75°F)
Dewpoint: -5.0°C (23°F) [RH = 14%]
Pressure (altimeter): 29.85 inches Hg (1011.0 mb)
Winds: calm
Visibility: 6 or more miles (10+ km)
Ceiling: at least 12,000 feet AGL
Clouds: sky clear below 12,000 feet AGL
Weather: no significant weather observed at this time

METAR text: YBAS 181530Z AUTO 15001KT 9999 // NCD 25/M06 Q1011 RF00.0/000.0
Conditions at: YBAS (ALICE SPRINGS AR, AU) observed 1530 UTC 18 February 2019
Temperature: 25.0°C (77°F)
Dewpoint: -6.0°C (21°F) [RH = 12%]
Pressure (altimeter): 29.85 inches Hg (1011.0 mb)
Winds: from the SSE (150 degrees) at 1 MPH (1 knots; 0.5 m/s)
Visibility: 6 or more miles (10+ km)
Ceiling: at least 12,000 feet AGL
Clouds: sky clear below 12,000 feet AGL
Weather: no significant weather observed at this time

METAR text: YBAS 181500Z AUTO 14004KT 9999 // NCD 25/M06 Q1011 RF00.0/000.0
Conditions at: YBAS (ALICE SPRINGS AR, AU) observed 1500 UTC 18 February 2019
Temperature: 25.0°C (77°F)
Dewpoint: -6.0°C (21°F) [RH = 12%]
Pressure (altimeter): 29.85 inches Hg (1011.0 mb)
Winds: from the SE (140 degrees) at 5 MPH (4 knots; 2.1 m/s)
Visibility: 6 or more miles (10+ km)
Ceiling: at least 12,000 feet AGL
Clouds: sky clear below 12,000 feet AGL
Weather: no significant weather observed at this time

METAR text: YBAS 181430Z AUTO 09004KT 9999 // NCD 27/M06 Q1011 RF00.0/000.0
Conditions at: YBAS (ALICE SPRINGS AR, AU) observed 1430 UTC 18 February 2019
Temperature: 27.0°C (81°F)
Dewpoint: -6.0°C (21°F) [RH = 11%]
Pressure (altimeter): 29.85 inches Hg (1011.0 mb)
Winds: from the E (90 degrees) at 5 MPH (4 knots; 2.1 m/s)
Visibility: 6 or more miles (10+ km)
Ceiling: at least 12,000 feet AGL
Clouds: sky clear below 12,000 feet AGL
Weather: no significant weather observed at this time

METAR text: YBAS 181400Z AUTO 07007KT 9999 // NCD 29/M05 Q1011 RF00.0/000.0
Conditions at: YBAS (ALICE SPRINGS AR, AU) observed 1400 UTC 18 February 2019
Temperature: 29.0°C (84°F)
Dewpoint: -5.0°C (23°F) [RH = 11%]
Pressure (altimeter): 29.85 inches Hg (1011.0 mb)
Winds: from the ENE (70 degrees) at 8 MPH (7 knots; 3.6 m/s)
Visibility: 6 or more miles (10+ km)
Ceiling: at least 12,000 feet AGL
Clouds: sky clear below 12,000 feet AGL
Weather: no significant weather observed at this time

METAR text: YBAS 181330Z AUTO 07006KT 9999 // NCD 29/M05 Q1011 RF00.0/000.0
Conditions at: YBAS (ALICE SPRINGS AR, AU) observed 1330 UTC 18 February 2019
Temperature: 29.0°C (84°F)
Dewpoint: -5.0°C (23°F) [RH = 11%]
Pressure (altimeter): 29.85 inches Hg (1011.0 mb)
Winds: from the ENE (70 degrees) at 7 MPH (6 knots; 3.1 m/s)
Visibility: 6 or more miles (10+ km)
Ceiling: at least 12,000 feet AGL
Clouds: sky clear below 12,000 feet AGL
Weather: no significant weather observed at this time

METAR text: YBAS 181300Z AUTO 07006KT 9999 // NCD 29/M04 Q1011 RF00.0/000.0
Conditions at: YBAS (ALICE SPRINGS AR, AU) observed 1300 UTC 18 February 2019
Temperature: 29.0°C (84°F)
Dewpoint: -4.0°C (25°F) [RH = 11%]
Pressure (altimeter): 29.85 inches Hg (1011.0 mb)
Winds: from the ENE (70 degrees) at 7 MPH (6 knots; 3.1 m/s)
Visibility: 6 or more miles (10+ km)
Ceiling: at least 12,000 feet AGL
Clouds: sky clear below 12,000 feet AGL
Weather: no significant weather observed at this time

METAR text: YBAS 181230Z AUTO 05006KT 9999 // NCD 30/M04 Q1011 RF00.0/000.0
Conditions at: YBAS (ALICE SPRINGS AR, AU) observed 1230 UTC 18 February 2019
Temperature: 30.0°C (86°F)
Dewpoint: -4.0°C (25°F) [RH = 11%]
Pressure (altimeter): 29.85 inches Hg (1011.0 mb)
Winds: from the NE (50 degrees) at 7 MPH (6 knots; 3.1 m/s)
Visibility: 6 or more miles (10+ km)
Ceiling: at least 12,000 feet AGL
Clouds: sky clear below 12,000 feet AGL
Weather: no significant weather observed at this time

METAR text: YBAS 181200Z AUTO 11006KT 9999 // NCD 31/M04 Q1011 RF00.0/000.0
Conditions at: YBAS (ALICE SPRINGS AR, AU) observed 1200 UTC 18 February 2019
Temperature: 31.0°C (88°F)
Dewpoint: -4.0°C (25°F) [RH = 10%]
Pressure (altimeter): 29.85 inches Hg (1011.0 mb)
Winds: from the ESE (110 degrees) at 7 MPH (6 knots; 3.1 m/s)
Visibility: 6 or more miles (10+ km)
Ceiling: at least 12,000 feet AGL
Clouds: sky clear below 12,000 feet AGL
Weather: no significant weather observed at this time

METAR text: YBAS 181130Z AUTO 12006KT 9999 // NCD 31/M04 Q1011 RF00.0/000.0
Conditions at: YBAS (ALICE SPRINGS AR, AU) observed 1130 UTC 18 February 2019
Temperature: 31.0°C (88°F)
Dewpoint: -4.0°C (25°F) [RH = 10%]
Pressure (altimeter): 29.85 inches Hg (1011.0 mb)
Winds: from the ESE (120 degrees) at 7 MPH (6 knots; 3.1 m/s)
Visibility: 6 or more miles (10+ km)
Ceiling: at least 12,000 feet AGL
Clouds: sky clear below 12,000 feet AGL
Weather: no significant weather observed at this time

METAR text: YBAS 181100Z AUTO 12006KT 9999 // NCD 33/M04 Q1010 RF00.0/000.0
Conditions at: YBAS (ALICE SPRINGS AR, AU) observed 1100 UTC 18 February 2019
Temperature: 33.0°C (91°F)
Dewpoint: -4.0°C (25°F) [RH =  9%]
Pressure (altimeter): 29.82 inches Hg (1010.0 mb)
Winds: from the ESE (120 degrees) at 7 MPH (6 knots; 3.1 m/s)
Visibility: 6 or more miles (10+ km)
Ceiling: at least 12,000 feet AGL
Clouds: sky clear below 12,000 feet AGL
Weather: no significant weather observed at this time

METAR text: YBAS 181030Z AUTO 14007KT 9999 // NCD 35/M04 Q1010 RF00.0/000.0
Conditions at: YBAS (ALICE SPRINGS AR, AU) observed 1030 UTC 18 February 2019
Temperature: 35.0°C (95°F)
Dewpoint: -4.0°C (25°F) [RH =  8%]
Pressure (altimeter): 29.82 inches Hg (1010.0 mb)
Winds: from the SE (140 degrees) at 8 MPH (7 knots; 3.6 m/s)
Visibility: 6 or more miles (10+ km)
Ceiling: at least 12,000 feet AGL
Clouds: sky clear below 12,000 feet AGL
Weather: no significant weather observed at this time

METAR text: YBAS 181000Z AUTO 13007KT 9999 // NCD 37/M03 Q1010 RF00.0/000.0
Conditions at: YBAS (ALICE SPRINGS AR, AU) observed 1000 UTC 18 February 2019
Temperature: 37.0°C (99°F)
Dewpoint: -3.0°C (27°F) [RH =  8%]
Pressure (altimeter): 29.82 inches Hg (1010.0 mb)
Winds: from the SE (130 degrees) at 8 MPH (7 knots; 3.6 m/s)
Visibility: 6 or more miles (10+ km)
Ceiling: at least 12,000 feet AGL
Clouds: sky clear below 12,000 feet AGL
Weather: no significant weather observed at this time

METAR text: YBAS 180930Z AUTO 13010KT 9999 // NCD 39/M03 Q1009 RF00.0/000.0
Conditions at: YBAS (ALICE SPRINGS AR, AU) observed 0930 UTC 18 February 2019
Temperature: 39.0°C (102°F)
Dewpoint: -3.0°C (27°F) [RH =  7%]
Pressure (altimeter): 29.79 inches Hg (1009.0 mb)
Winds: from the SE (130 degrees) at 12 MPH (10 knots; 5.1 m/s)
Visibility: 6 or more miles (10+ km)
Ceiling: at least 12,000 feet AGL
Clouds: sky clear below 12,000 feet AGL
Weather: no significant weather observed at this time

METAR text: YBAS 180900Z AUTO 15013KT 100V160 9999 // NCD 40/M03 Q1009 RF00.0/000.0
Conditions at: YBAS (ALICE SPRINGS AR, AU) observed 0900 UTC 18 February 2019
Temperature: 40.0°C (104°F)
Dewpoint: -3.0°C (27°F) [RH =  7%]
Pressure (altimeter): 29.79 inches Hg (1009.0 mb)
Winds: from the SSE (150 degrees) at 15 MPH (13 knots; 6.7 m/s)
Visibility: 6 or more miles (10+ km)
Ceiling: at least 12,000 feet AGL
Clouds: sky clear below 12,000 feet AGL
Weather: no significant weather observed at this time

METAR text: YBAS 180830Z AUTO 15011KT 9999 // NCD 40/M04 Q1008 RF00.0/000.0
Conditions at: YBAS (ALICE SPRINGS AR, AU) observed 0830 UTC 18 February 2019
Temperature: 40.0°C (104°F)
Dewpoint: -4.0°C (25°F) [RH =  6%]
Pressure (altimeter): 29.76 inches Hg (1008.0 mb)
Winds: from the SSE (150 degrees) at 13 MPH (11 knots; 5.7 m/s)
Visibility: 6 or more miles (10+ km)
Ceiling: at least 12,000 feet AGL
Clouds: sky clear below 12,000 feet AGL
Weather: no significant weather observed at this time

METAR text: YBAS 180800Z AUTO 16012KT 9999 // NCD 41/M04 Q1008
Conditions at: YBAS (ALICE SPRINGS AR, AU) observed 0800 UTC 18 February 2019
Temperature: 41.0°C (106°F)
Dewpoint: -4.0°C (25°F) [RH =  6%]
Pressure (altimeter): 29.76 inches Hg (1008.0 mb)
Winds: from the SSE (160 degrees) at 14 MPH (12 knots; 6.2 m/s)
Visibility: 6 or more miles (10+ km)
Ceiling: at least 12,000 feet AGL
Clouds: sky clear below 12,000 feet AGL
Weather: no significant weather observed at this time

METAR text: YBAS 180730Z AUTO 14016KT 9999 // NCD 41/M04 Q1008 RF00.0/000.0
Conditions at: YBAS (ALICE SPRINGS AR, AU) observed 0730 UTC 18 February 2019
Temperature: 41.0°C (106°F)
Dewpoint: -4.0°C (25°F) [RH =  6%]
Pressure (altimeter): 29.76 inches Hg (1008.0 mb)
Winds: from the SE (140 degrees) at 18 MPH (16 knots; 8.2 m/s)
Visibility: 6 or more miles (10+ km)
Ceiling: at least 12,000 feet AGL
Clouds: sky clear below 12,000 feet AGL
Weather: no significant weather observed at this time

METAR text: YBAS 180700Z AUTO 23006KT 170V240 9999 // NCD 41/M04 Q1008 RF00.0/000.0
Conditions at: YBAS (ALICE SPRINGS AR, AU) observed 0700 UTC 18 February 2019
Temperature: 41.0°C (106°F)
Dewpoint: -4.0°C (25°F) [RH =  6%]
Pressure (altimeter): 29.76 inches Hg (1008.0 mb)
Winds: from the SW (230 degrees) at 7 MPH (6 knots; 3.1 m/s)
Visibility: 6 or more miles (10+ km)
Ceiling: at least 12,000 feet AGL
Clouds: sky clear below 12,000 feet AGL
Weather: no significant weather observed at this time

METAR text: YBAS 180630Z 16009KT 130V190 CAVOK 41/M04 Q1008 RF00.0/000.0
Conditions at: YBAS (ALICE SPRINGS AR, AU) observed 0630 UTC 18 February 2019
Temperature: 41.0°C (106°F)
Dewpoint: -4.0°C (25°F) [RH =  6%]
Pressure (altimeter): 29.76 inches Hg (1008.0 mb)
Winds: from the SSE (160 degrees) at 10 MPH (9 knots; 4.6 m/s)
Visibility: 6 or more miles (10+ km)
Ceiling: ceiling and visibility are OK
Clouds: unknown
Weather: no significant weather observed at this time

METAR text: YBAS 180600Z AUTO 09013KT 080V170 9999 // NCD 41/M04 Q1008 RF00.0/000.0
Conditions at: YBAS (ALICE SPRINGS AR, AU) observed 0600 UTC 18 February 2019
Temperature: 41.0°C (106°F)
Dewpoint: -4.0°C (25°F) [RH =  6%]
Pressure (altimeter): 29.76 inches Hg (1008.0 mb)
Winds: from the E (90 degrees) at 15 MPH (13 knots; 6.7 m/s)
Visibility: 6 or more miles (10+ km)
Ceiling: at least 12,000 feet AGL
Clouds: sky clear below 12,000 feet AGL
Weather: no significant weather observed at this time

METAR text: YBAS 180530Z 22005KT CAVOK 41/M04 Q1009
Conditions at: YBAS (ALICE SPRINGS AR, AU) observed 0530 UTC 18 February 2019
Temperature: 41.0°C (106°F)
Dewpoint: -4.0°C (25°F) [RH =  6%]
Pressure (altimeter): 29.79 inches Hg (1009.0 mb)
Winds: from the SW (220 degrees) at 6 MPH (5 knots; 2.6 m/s)
Visibility: 6 or more miles (10+ km)
Ceiling: ceiling and visibility are OK
Clouds: unknown
Weather: no significant weather observed at this time

METAR text: YBAS 180500Z 16009KT 110V170 CAVOK 40/M04 Q1009 RF00.0/000.0
Conditions at: YBAS (ALICE SPRINGS AR, AU) observed 0500 UTC 18 February 2019
Temperature: 40.0°C (104°F)
Dewpoint: -4.0°C (25°F) [RH =  6%]
Pressure (altimeter): 29.79 inches Hg (1009.0 mb)
Winds: from the SSE (160 degrees) at 10 MPH (9 knots; 4.6 m/s)
Visibility: 6 or more miles (10+ km)
Ceiling: ceiling and visibility are OK
Clouds: unknown
Weather: no significant weather observed at this time

METAR text: YBAS 180430Z 10006KT 060V190 CAVOK 40/M04 Q1009 RF00.0/000.0
Conditions at: YBAS (ALICE SPRINGS AR, AU) observed 0430 UTC 18 February 2019
Temperature: 40.0°C (104°F)
Dewpoint: -4.0°C (25°F) [RH =  6%]
Pressure (altimeter): 29.79 inches Hg (1009.0 mb)
Winds: from the E (100 degrees) at 7 MPH (6 knots; 3.1 m/s)
Visibility: 6 or more miles (10+ km)
Ceiling: ceiling and visibility are OK
Clouds: unknown
Weather: no significant weather observed at this time

METAR text: YBAS 180400Z 09009KT CAVOK 40/M04 Q1010
Conditions at: YBAS (ALICE SPRINGS AR, AU) observed 0400 UTC 18 February 2019
Temperature: 40.0°C (104°F)
Dewpoint: -4.0°C (25°F) [RH =  6%]
Pressure (altimeter): 29.82 inches Hg (1010.0 mb)
Winds: from the E (90 degrees) at 10 MPH (9 knots; 4.6 m/s)
Visibility: 6 or more miles (10+ km)
Ceiling: ceiling and visibility are OK
Clouds: unknown
Weather: no significant weather observed at this time

METAR text: YBAS 180330Z 25006KT 160V270 CAVOK 39/M05 Q1010 RF00.0/000.0
Conditions at: YBAS (ALICE SPRINGS AR, AU) observed 0330 UTC 18 February 2019
Temperature: 39.0°C (102°F)
Dewpoint: -5.0°C (23°F) [RH =  6%]
Pressure (altimeter): 29.82 inches Hg (1010.0 mb)
Winds: from the WSW (250 degrees) at 7 MPH (6 knots; 3.1 m/s)
Visibility: 6 or more miles (10+ km)
Ceiling: ceiling and visibility are OK
Clouds: unknown
Weather: no significant weather observed at this time

METAR text: YBAS 180300Z AUTO 36005KT 320V080 9999 // NCD 39/M03 Q1011 RF00.0/000.0
Conditions at: YBAS (ALICE SPRINGS AR, AU) observed 0300 UTC 18 February 2019
Temperature: 39.0°C (102°F)
Dewpoint: -3.0°C (27°F) [RH =  7%]
Pressure (altimeter): 29.85 inches Hg (1011.0 mb)
Winds: from the N (360 degrees) at 6 MPH (5 knots; 2.6 m/s)
Visibility: 6 or more miles (10+ km)
Ceiling: at least 12,000 feet AGL
Clouds: sky clear below 12,000 feet AGL
Weather: no significant weather observed at this time

METAR text: YBAS 180230Z 18005KT 130V300 CAVOK 38/M04 Q1011 RF00.0/000.0
Conditions at: YBAS (ALICE SPRINGS AR, AU) observed 0230 UTC 18 February 2019
Temperature: 38.0°C (100°F)
Dewpoint: -4.0°C (25°F) [RH =  7%]
Pressure (altimeter): 29.85 inches Hg (1011.0 mb)
Winds: from the S (180 degrees) at 6 MPH (5 knots; 2.6 m/s)
Visibility: 6 or more miles (10+ km)
Ceiling: ceiling and visibility are OK
Clouds: unknown
Weather: no significant weather observed at this time

METAR text: YBAS 180200Z 29005KT CAVOK 38/M04 Q1012
Conditions at: YBAS (ALICE SPRINGS AR, AU) observed 0200 UTC 18 February 2019
Temperature: 38.0°C (100°F)
Dewpoint: -4.0°C (25°F) [RH =  7%]
Pressure (altimeter): 29.88 inches Hg (1012.0 mb)
Winds: from the WNW (290 degrees) at 6 MPH (5 knots; 2.6 m/s)
Visibility: 6 or more miles (10+ km)
Ceiling: ceiling and visibility are OK
Clouds: unknown
Weather: no significant weather observed at this time

METAR text: YBAS 180130Z 09005KT 050V110 CAVOK 38/M04 Q1012 RF00.0/000.0
Conditions at: YBAS (ALICE SPRINGS AR, AU) observed 0130 UTC 18 February 2019
Temperature: 38.0°C (100°F)
Dewpoint: -4.0°C (25°F) [RH =  7%]
Pressure (altimeter): 29.88 inches Hg (1012.0 mb)
Winds: from the E (90 degrees) at 6 MPH (5 knots; 2.6 m/s)
Visibility: 6 or more miles (10+ km)
Ceiling: ceiling and visibility are OK
Clouds: unknown
Weather: no significant weather observed at this time

METAR text: YBAS 180100Z 29005KT 230V350 CAVOK 37/M05 Q1012 RF00.0/000.0
Conditions at: YBAS (ALICE SPRINGS AR, AU) observed 0100 UTC 18 February 2019
Temperature: 37.0°C (99°F)
Dewpoint: -5.0°C (23°F) [RH =  7%]
Pressure (altimeter): 29.88 inches Hg (1012.0 mb)
Winds: from the WNW (290 degrees) at 6 MPH (5 knots; 2.6 m/s)
Visibility: 6 or more miles (10+ km)
Ceiling: ceiling and visibility are OK
Clouds: unknown
Weather: no significant weather observed at this time

METAR text: YBAS 180030Z 01005KT CAVOK 36/M05 Q1012
Conditions at: YBAS (ALICE SPRINGS AR, AU) observed 0030 UTC 18 February 2019
Temperature: 36.0°C (97°F)
Dewpoint: -5.0°C (23°F) [RH =  7%]
Pressure (altimeter): 29.88 inches Hg (1012.0 mb)
Winds: from the N (10 degrees) at 6 MPH (5 knots; 2.6 m/s)
Visibility: 6 or more miles (10+ km)
Ceiling: ceiling and visibility are OK
Clouds: unknown
Weather: no significant weather observed at this time

METAR text: YBAS 180000Z 36005KT CAVOK 34/M05 Q1012
Conditions at: YBAS (ALICE SPRINGS AR, AU) observed 0000 UTC 18 February 2019
Temperature: 34.0°C (93°F)
Dewpoint: -5.0°C (23°F) [RH =  8%]
Pressure (altimeter): 29.88 inches Hg (1012.0 mb)
Winds: from the N (360 degrees) at 6 MPH (5 knots; 2.6 m/s)
Visibility: 6 or more miles (10+ km)
Ceiling: ceiling and visibility are OK
Clouds: unknown
Weather: no significant weather observed at this time

METAR text: YBAS 172330Z 33004KT CAVOK 31/M04 Q1012
Conditions at: YBAS (ALICE SPRINGS AR, AU) observed 2330 UTC 17 February 2019
Temperature: 31.0°C (88°F)
Dewpoint: -4.0°C (25°F) [RH = 10%]
Pressure (altimeter): 29.88 inches Hg (1012.0 mb)
Winds: from the NNW (330 degrees) at 5 MPH (4 knots; 2.1 m/s)
Visibility: 6 or more miles (10+ km)
Ceiling: ceiling and visibility are OK
Clouds: unknown
Weather: no significant weather observed at this time

METAR text: YBAS 172300Z 00000KT CAVOK 27/M06 Q1012
Conditions at: YBAS (ALICE SPRINGS AR, AU) observed 2300 UTC 17 February 2019
Temperature: 27.0°C (81°F)
Dewpoint: -6.0°C (21°F) [RH = 11%]
Pressure (altimeter): 29.88 inches Hg (1012.0 mb)
Winds: calm
Visibility: 6 or more miles (10+ km)
Ceiling: ceiling and visibility are OK
Clouds: unknown
Weather: no significant weather observed at this time

METAR text: YBAS 172230Z AUTO 27002KT 9999 // NCD 25/M07 Q1012 RF00.0/000.0
Conditions at: YBAS (ALICE SPRINGS AR, AU) observed 2230 UTC 17 February 2019
Temperature: 25.0°C (77°F)
Dewpoint: -7.0°C (19°F) [RH = 11%]
Pressure (altimeter): 29.88 inches Hg (1012.0 mb)
Winds: from the W (270 degrees) at 2 MPH (2 knots; 1.0 m/s)
Visibility: 6 or more miles (10+ km)
Ceiling: at least 12,000 feet AGL
Clouds: sky clear below 12,000 feet AGL
Weather: no significant weather observed at this time

METAR text: YBAS 172212Z AUTO 28004KT 9999 // NCD 23/M07 Q1012 RF00/0/000/0
Conditions at: YBAS (ALICE SPRINGS AR, AU) observed 2212 UTC 17 February 2019
Temperature: 23.0°C (73°F)
Dewpoint: -7.0°C (19°F) [RH = 13%]
Pressure (altimeter): 29.88 inches Hg (1012.0 mb)
Winds: from the W (280 degrees) at 5 MPH (4 knots; 2.1 m/s)
Visibility: 6 or more miles (10+ km)
Ceiling: at least 12,000 feet AGL
Clouds: sky clear below 12,000 feet AGL
Weather: no significant weather observed at this time

METAR text: YBAS 172200Z AUTO 27004KT 6000 // NCD 22/M07 Q1012 RF00.0/000.0
Conditions at: YBAS (ALICE SPRINGS AR, AU) observed 2200 UTC 17 February 2019
Temperature: 22.0°C (72°F)
Dewpoint: -7.0°C (19°F) [RH = 14%]
Pressure (altimeter): 29.88 inches Hg (1012.0 mb)
Winds: from the W (270 degrees) at 5 MPH (4 knots; 2.1 m/s)
Visibility: 4 miles ( 6 km)
Ceiling: at least 12,000 feet AGL
Clouds: sky clear below 12,000 feet AGL
Weather: no significant weather observed at this time

METAR text: YBAS 172155Z AUTO 28004KT 6000 // NCD 22/M06 Q1012 RF00/0/000/0
Conditions at: YBAS (ALICE SPRINGS AR, AU) observed 2155 UTC 17 February 2019
Temperature: 22.0°C (72°F)
Dewpoint: -6.0°C (21°F) [RH = 15%]
Pressure (altimeter): 29.88 inches Hg (1012.0 mb)
Winds: from the W (280 degrees) at 5 MPH (4 knots; 2.1 m/s)
Visibility: 4 miles ( 6 km)
Ceiling: at least 12,000 feet AGL
Clouds: sky clear below 12,000 feet AGL
Weather: no significant weather observed at this time

METAR text: YBAS 172130Z AUTO 29003KT 9999 // NCD 20/M07 Q1011 RF00.0/000.0
Conditions at: YBAS (ALICE SPRINGS AR, AU) observed 2130 UTC 17 February 2019
Temperature: 20.0°C (68°F)
Dewpoint: -7.0°C (19°F) [RH = 15%]
Pressure (altimeter): 29.85 inches Hg (1011.0 mb)
Winds: from the WNW (290 degrees) at 3 MPH (3 knots; 1.5 m/s)
Visibility: 6 or more miles (10+ km)
Ceiling: at least 12,000 feet AGL
Clouds: sky clear below 12,000 feet AGL
Weather: no significant weather observed at this time

METAR text: YBAS 172100Z AUTO 27005KT 9999 // NCD 19/M07 Q1011 RF00.0/000.0
Conditions at: YBAS (ALICE SPRINGS AR, AU) observed 2100 UTC 17 February 2019
Temperature: 19.0°C (66°F)
Dewpoint: -7.0°C (19°F) [RH = 16%]
Pressure (altimeter): 29.85 inches Hg (1011.0 mb)
Winds: from the W (270 degrees) at 6 MPH (5 knots; 2.6 m/s)
Visibility: 6 or more miles (10+ km)
Ceiling: at least 12,000 feet AGL
Clouds: sky clear below 12,000 feet AGL
Weather: no significant weather observed at this time

METAR text: YBAS 172030Z AUTO 27005KT 9999 // NCD 18/M07 Q1011 RF00.0/000.0
Conditions at: YBAS (ALICE SPRINGS AR, AU) observed 2030 UTC 17 February 2019
Temperature: 18.0°C (64°F)
Dewpoint: -7.0°C (19°F) [RH = 18%]
Pressure (altimeter): 29.85 inches Hg (1011.0 mb)
Winds: from the W (270 degrees) at 6 MPH (5 knots; 2.6 m/s)
Visibility: 6 or more miles (10+ km)
Ceiling: at least 12,000 feet AGL
Clouds: sky clear below 12,000 feet AGL
Weather: no significant weather observed at this time

METAR text: YBAS 172000Z AUTO 23006KT 9999 // NCD 19/M08 Q1011 RF00.0/000.0
Conditions at: YBAS (ALICE SPRINGS AR, AU) observed 2000 UTC 17 February 2019
Temperature: 19.0°C (66°F)
Dewpoint: -8.0°C (18°F) [RH = 15%]
Pressure (altimeter): 29.85 inches Hg (1011.0 mb)
Winds: from the SW (230 degrees) at 7 MPH (6 knots; 3.1 m/s)
Visibility: 6 or more miles (10+ km)
Ceiling: at least 12,000 feet AGL
Clouds: sky clear below 12,000 feet AGL
Weather: no significant weather observed at this time

METAR text: YBAS 171930Z AUTO 00000KT 9999 // NCD 19/M07 Q1010 RF00.0/000.0
Conditions at: YBAS (ALICE SPRINGS AR, AU) observed 1930 UTC 17 February 2019
Temperature: 19.0°C (66°F)
Dewpoint: -7.0°C (19°F) [RH = 16%]
Pressure (altimeter): 29.82 inches Hg (1010.0 mb)
Winds: calm
Visibility: 6 or more miles (10+ km)
Ceiling: at least 12,000 feet AGL
Clouds: sky clear below 12,000 feet AGL
Weather: no significant weather observed at this time

METAR text: YBAS 171900Z AUTO 32004KT 9999 // NCD 19/M08 Q1010 RF00.0/000.0
Conditions at: YBAS (ALICE SPRINGS AR, AU) observed 1900 UTC 17 February 2019
Temperature: 19.0°C (66°F)
Dewpoint: -8.0°C (18°F) [RH = 15%]
Pressure (altimeter): 29.82 inches Hg (1010.0 mb)
Winds: from the NW (320 degrees) at 5 MPH (4 knots; 2.1 m/s)
Visibility: 6 or more miles (10+ km)
Ceiling: at least 12,000 feet AGL
Clouds: sky clear below 12,000 feet AGL
Weather: no significant weather observed at this time

METAR text: YBAS 171830Z AUTO 32005KT 9999 // NCD 22/M06 Q1010 RF00.0/000.0
Conditions at: YBAS (ALICE SPRINGS AR, AU) observed 1830 UTC 17 February 2019
Temperature: 22.0°C (72°F)
Dewpoint: -6.0°C (21°F) [RH = 15%]
Pressure (altimeter): 29.82 inches Hg (1010.0 mb)
Winds: from the NW (320 degrees) at 6 MPH (5 knots; 2.6 m/s)
Visibility: 6 or more miles (10+ km)
Ceiling: at least 12,000 feet AGL
Clouds: sky clear below 12,000 feet AGL
Weather: no significant weather observed at this time

METAR text: YBAS 171800Z AUTO 27004KT 9999 // NCD 21/M07 Q1010 RF00.0/000.0
Conditions at: YBAS (ALICE SPRINGS AR, AU) observed 1800 UTC 17 February 2019
Temperature: 21.0°C (70°F)
Dewpoint: -7.0°C (19°F) [RH = 15%]
Pressure (altimeter): 29.82 inches Hg (1010.0 mb)
Winds: from the W (270 degrees) at 5 MPH (4 knots; 2.1 m/s)
Visibility: 6 or more miles (10+ km)
Ceiling: at least 12,000 feet AGL
Clouds: sky clear below 12,000 feet AGL
Weather: no significant weather observed at this time

METAR text: YBAS 171730Z AUTO 28005KT 9999 // NCD 21/M08 Q1010 RF00.0/000.0
Conditions at: YBAS (ALICE SPRINGS AR, AU) observed 1730 UTC 17 February 2019
Temperature: 21.0°C (70°F)
Dewpoint: -8.0°C (18°F) [RH = 13%]
Pressure (altimeter): 29.82 inches Hg (1010.0 mb)
Winds: from the W (280 degrees) at 6 MPH (5 knots; 2.6 m/s)
Visibility: 6 or more miles (10+ km)
Ceiling: at least 12,000 feet AGL
Clouds: sky clear below 12,000 feet AGL
Weather: no significant weather observed at this time

Forecast for: YBAS (ALICE SPRINGS AR, AU)
Text: TAF YBAS 182330Z 1900/1924 14010KT CAVOK
Forecast period: 0000 to 1500 UTC 19 February 2019
Forecast type: FROM: standard forecast or significant change
Winds: from the SE (140 degrees) at 12 MPH (10 knots; 5.1 m/s)
Visibility: 6 or more miles 10+ km)
Ceiling: unknown
Clouds: missing
Weather: NSW  (no significant weather)
Text: FM191500 30005KT CAVOK
Forecast period: 1500 to 2300 UTC 19 February 2019
Forecast type: FROM: standard forecast or significant change
Winds: from the WNW (300 degrees) at 6 MPH (5 knots; 2.6 m/s)
Visibility: 6 or more miles 10+ km)
Ceiling: unknown
Clouds: missing
Weather: NSW  (no significant weather)
Text: FM192300 11010KT CAVOK
Forecast period: 2300 UTC 19 February 2019 to 0000 UTC 20 February 2019
Forecast type: FROM: standard forecast or significant change
Winds: from the ESE (110 degrees) at 12 MPH (10 knots; 5.1 m/s)
Visibility: 6 or more miles 10+ km)
Ceiling: unknown
Clouds: missing
Weather: NSW  (no significant weather)